Time;durP1;ratioP1;P1;durP2;ratioP2;P2;SDS_P1;SDS_P2;PMS_P1;PMS_P2;Temp;Humidity;BMP_temperature;BMP_pressure;BME280_temperature;BME280_humidity;BME280_pressure;Samples;Min_cycle;Max_cycle;Signal;HPM_P1;HPM_P2
2021/01/30 00:00:30;;;;;;;14.40;4.18;;;7.50;90.60;;;;;;5092415;28;20516;-74
2021/01/30 00:02:57;;;;;;;16.02;4.20;;;7.40;90.50;;;;;;5105534;28;20452;-74
2021/01/30 00:05:24;;;;;;;14.65;4.40;;;7.40;90.60;;;;;;5100162;28;20052;-75
2021/01/30 00:07:49;;;;;;;10.93;4.22;;;7.30;90.70;;;;;;5091134;28;20103;-74
2021/01/30 00:10:17;;;;;;;15.48;4.78;;;7.30;90.80;;;;;;5092247;28;20514;-75
2021/01/30 00:12:43;;;;;;;10.88;4.72;;;7.20;90.80;;;;;;5090697;28;20058;-74
2021/01/30 00:15:11;;;;;;;13.95;4.85;;;7.20;90.90;;;;;;5094369;28;20024;-74
2021/01/30 00:17:36;;;;;;;13.68;4.95;;;7.10;91.00;;;;;;5095942;28;20020;-74
2021/01/30 00:20:04;;;;;;;13.23;4.72;;;7.10;91.10;;;;;;5094095;28;20058;-74
2021/01/30 00:22:30;;;;;;;14.35;5.22;;;7.10;91.20;;;;;;5095493;28;20050;-74
2021/01/30 00:24:55;;;;;;;11.45;5.05;;;7.10;91.30;;;;;;5060640;28;20028;-74
2021/01/30 00:27:22;;;;;;;17.65;4.60;;;7.10;91.40;;;;;;5095237;28;20020;-74
2021/01/30 00:29:48;;;;;;;16.38;4.55;;;7.00;91.30;;;;;;5094004;28;20042;-74
2021/01/30 00:32:16;;;;;;;28.10;5.55;;;7.00;91.20;;;;;;5095468;28;20035;-74
2021/01/30 00:34:42;;;;;;;18.35;5.15;;;7.00;91.30;;;;;;5095190;28;20412;-74
2021/01/30 00:37:23;;;;;;;21.10;5.03;;;7.00;91.40;;;;;;5093449;28;20024;-74
2021/01/30 00:39:51;;;;;;;29.63;6.32;;;6.90;91.40;;;;;;5094551;28;20020;-74
2021/01/30 00:42:19;;;;;;;15.65;4.88;;;6.80;91.80;;;;;;5093944;28;20427;-74
2021/01/30 00:44:44;;;;;;;18.55;5.15;;;6.80;91.60;;;;;;5093875;28;20056;-74
2021/01/30 00:47:11;;;;;;;18.23;4.97;;;6.70;91.50;;;;;;5093961;28;20028;-74
2021/01/30 00:49:40;;;;;;;16.63;5.88;;;6.70;91.60;;;;;;5095015;28;20379;-75
2021/01/30 00:52:06;;;;;;;20.95;5.75;;;6.70;91.60;;;;;;5095130;28;20077;-74
2021/01/30 00:54:31;;;;;;;20.70;5.88;;;6.70;91.70;;;;;;5095465;28;20065;-74
2021/01/30 00:56:57;;;;;;;19.58;5.32;;;6.70;91.60;;;;;;5077017;28;20032;-74
2021/01/30 00:59:23;;;;;;;18.80;5.35;;;6.60;91.40;;;;;;5094050;28;20036;-74
2021/01/30 01:01:50;;;;;;;18.35;6.75;;;6.60;91.40;;;;;;5094477;28;20526;-74
2021/01/30 01:04:17;;;;;;;16.13;8.05;;;6.60;91.20;;;;;;5095095;28;20023;-74
2021/01/30 01:06:43;;;;;;;18.58;8.70;;;6.50;91.10;;;;;;5093520;28;20035;-74
2021/01/30 01:09:09;;;;;;;26.55;13.57;;;6.50;91.20;;;;;;5093153;28;20036;-74
2021/01/30 01:11:36;;;;;;;19.90;11.85;;;6.40;90.50;;;;;;5094595;28;20028;-74
2021/01/30 01:14:03;;;;;;;24.30;13.85;;;6.30;90.50;;;;;;5093400;28;20028;-74
2021/01/30 01:16:28;;;;;;;33.00;13.63;;;6.20;91.00;;;;;;5094515;28;20123;-74
2021/01/30 01:18:55;;;;;;;29.73;14.07;;;6.10;90.30;;;;;;5093122;28;20473;-74
2021/01/30 01:21:20;;;;;;;28.48;14.60;;;5.90;90.20;;;;;;5094635;28;20028;-73
2021/01/30 01:23:47;;;;;;;31.15;14.93;;;5.80;90.10;;;;;;5094072;28;20481;-74
2021/01/30 01:26:14;;;;;;;25.38;14.23;;;5.70;90.00;;;;;;5093798;28;20032;-74
2021/01/30 01:28:40;;;;;;;25.35;14.95;;;5.50;90.10;;;;;;5092567;28;20020;-74
2021/01/30 01:31:07;;;;;;;30.83;14.85;;;5.40;90.20;;;;;;5093948;28;20039;-74
2021/01/30 01:33:32;;;;;;;29.73;13.68;;;5.30;90.20;;;;;;5093540;28;20047;-75
2021/01/30 01:35:59;;;;;;;27.63;14.65;;;5.20;90.30;;;;;;5094256;28;20032;-75
2021/01/30 01:38:25;;;;;;;21.52;13.02;;;5.10;90.30;;;;;;5093885;28;20106;-75
2021/01/30 01:40:52;;;;;;;30.00;13.35;;;5.10;90.40;;;;;;5093110;28;20183;-74
2021/01/30 01:43:24;;;;;;;24.20;12.10;;;5.10;90.50;;;;;;5093586;28;20059;-74
2021/01/30 01:46:11;;;;;;;28.58;14.65;;;5.00;90.20;;;;;;5094162;28;20529;-74
2021/01/30 01:48:47;;;;;;;30.42;14.20;;;4.90;89.80;;;;;;5092447;28;20020;-74
2021/01/30 01:51:27;;;;;;;26.85;12.20;;;4.80;89.60;;;;;;5090210;28;20028;-74
2021/01/30 01:53:56;;;;;;;19.33;11.82;;;4.80;89.30;;;;;;5090921;28;20039;-74
2021/01/30 01:56:25;;;;;;;17.73;9.73;;;4.70;88.80;;;;;;5093858;28;20480;-74
2021/01/30 01:58:56;;;;;;;14.27;7.35;;;4.60;87.90;;;;;;5092325;28;20115;-74
2021/01/30 02:01:22;;;;;;;12.02;7.10;;;4.60;87.50;;;;;;5093407;28;20449;-74
2021/01/30 02:03:56;;;;;;;8.45;6.05;;;4.50;86.70;;;;;;5072031;28;20090;-74
2021/01/30 02:06:21;;;;;;;10.55;6.22;;;4.40;85.20;;;;;;5081465;28;20012;-75
2021/01/30 02:08:48;;;;;;;9.23;5.65;;;4.30;84.50;;;;;;5091663;28;20065;-74
2021/01/30 02:11:14;;;;;;;9.00;5.00;;;4.20;85.10;;;;;;5092421;28;20035;-74
2021/01/30 02:13:50;;;;;;;6.15;5.05;;;4.20;84.70;;;;;;5091351;28;20024;-74
2021/01/30 02:16:44;;;;;;;5.53;4.93;;;4.10;84.50;;;;;;5092253;28;20388;-74
2021/01/30 02:19:57;;;;;;;7.60;4.90;;;4.10;84.70;;;;;;5074679;28;20028;-74
2021/01/30 02:22:51;;;;;;;6.63;4.68;;;4.10;84.50;;;;;;5062569;28;20463;-74
2021/01/30 02:25:42;;;;;;;7.28;4.20;;;4.10;84.80;;;;;;5074476;28;20040;-74
2021/01/30 02:28:23;;;;;;;5.55;3.97;;;4.10;84.60;;;;;;5088384;28;20032;-74
2021/01/30 02:31:16;;;;;;;7.18;4.53;;;4.10;84.20;;;;;;5093826;28;20016;-74
2021/01/30 02:34:08;;;;;;;8.05;4.90;;;4.10;83.70;;;;;;5093103;28;20020;-74
2021/01/30 02:36:54;;;;;;;7.10;4.32;;;4.00;84.20;;;;;;5091189;28;20059;-74
2021/01/30 02:39:31;;;;;;;6.30;4.18;;;4.00;84.50;;;;;;5090745;28;20051;-74
2021/01/30 02:42:05;;;;;;;5.13;3.65;;;4.00;84.80;;;;;;5092973;28;20531;-75
2021/01/30 02:44:36;;;;;;;5.63;3.85;;;4.10;85.20;;;;;;5092105;28;20054;-75
2021/01/30 02:47:02;;;;;;;10.90;4.57;;;4.20;85.50;;;;;;5092098;28;20020;-74
2021/01/30 02:49:33;;;;;;;6.43;4.10;;;4.20;85.30;;;;;;5074365;28;20036;-75
2021/01/30 02:52:22;;;;;;;6.28;4.40;;;4.10;85.30;;;;;;5093282;28;20020;-74
2021/01/30 02:54:54;;;;;;;7.10;4.72;;;4.10;85.50;;;;;;5093308;28;20027;-75
2021/01/30 02:57:20;;;;;;;7.10;5.15;;;4.10;85.30;;;;;;5091975;28;20119;-74
2021/01/30 02:59:49;;;;;;;7.80;5.00;;;4.10;84.70;;;;;;5091673;28;20090;-75
2021/01/30 03:02:19;;;;;;;11.68;5.97;;;4.00;85.00;;;;;;5092850;28;20062;-74
2021/01/30 03:04:45;;;;;;;6.93;5.03;;;4.10;85.40;;;;;;5091396;28;20417;-75
2021/01/30 03:07:33;;;;;;;7.00;6.15;;;4.10;85.40;;;;;;5091873;28;20024;-75
2021/01/30 03:10:36;;;;;;;8.48;6.80;;;4.10;85.20;;;;;;5092182;28;20051;-74
2021/01/30 03:13:21;;;;;;;8.50;6.32;;;4.10;84.90;;;;;;5092740;28;20099;-74
2021/01/30 03:15:54;;;;;;;12.13;7.30;;;4.00;85.30;;;;;;5092682;28;20417;-75
2021/01/30 03:18:26;;;;;;;8.25;6.80;;;4.00;84.10;;;;;;5093171;28;20021;-75
2021/01/30 03:20:52;;;;;;;8.85;7.03;;;4.00;84.40;;;;;;5105716;28;20027;-74
2021/01/30 03:23:20;;;;;;;9.18;7.38;;;3.90;84.80;;;;;;5071148;28;20044;-74
2021/01/30 03:25:47;;;;;;;8.32;7.15;;;3.90;85.00;;;;;;5081833;28;20384;-75
2021/01/30 03:28:13;;;;;;;11.52;8.00;;;3.80;84.60;;;;;;5091730;28;20020;-74
2021/01/30 03:30:38;;;;;;;9.88;8.20;;;3.80;85.10;;;;;;5093064;28;20391;-75
2021/01/30 03:33:05;;;;;;;11.27;9.05;;;3.80;85.30;;;;;;5092528;28;20016;-75
2021/01/30 03:35:32;;;;;;;12.75;10.43;;;3.80;85.40;;;;;;5092327;28;20690;-74
2021/01/30 03:37:57;;;;;;;13.35;9.52;;;3.80;85.20;;;;;;5092083;28;20081;-74
2021/01/30 03:40:24;;;;;;;13.68;8.55;;;3.80;85.60;;;;;;5090941;28;20036;-75
2021/01/30 03:42:50;;;;;;;11.57;9.55;;;3.80;85.90;;;;;;5090409;28;20119;-74
2021/01/30 03:45:23;;;;;;;13.90;11.20;;;3.90;85.90;;;;;;5090673;28;20449;-74
2021/01/30 03:47:49;;;;;;;20.25;14.50;;;3.80;85.80;;;;;;5092431;28;20020;-75
2021/01/30 03:50:16;;;;;;;21.55;14.55;;;3.80;85.90;;;;;;5094578;28;20106;-74
2021/01/30 03:52:42;;;;;;;19.20;15.55;;;3.70;86.20;;;;;;5094837;28;20016;-75
2021/01/30 03:55:09;;;;;;;23.35;16.27;;;3.60;86.20;;;;;;5094534;28;20533;-74
2021/01/30 03:57:35;;;;;;;23.55;17.88;;;3.60;86.60;;;;;;5096041;28;20027;-74
2021/01/30 04:00:01;;;;;;;26.55;19.38;;;3.60;86.80;;;;;;5094302;28;20032;-75
2021/01/30 04:02:27;;;;;;;30.20;21.13;;;3.50;86.80;;;;;;5077579;28;20085;-74
2021/01/30 04:04:52;;;;;;;29.95;21.92;;;3.50;86.60;;;;;;5077304;28;20551;-74
2021/01/30 04:07:18;;;;;;;25.83;19.60;;;3.40;86.60;;;;;;5074425;28;20104;-75
2021/01/30 04:09:44;;;;;;;27.65;20.17;;;3.40;87.00;;;;;;5075178;28;20029;-74
2021/01/30 04:12:09;;;;;;;27.73;20.08;;;3.30;86.90;;;;;;5074745;28;20120;-74
2021/01/30 04:14:36;;;;;;;27.13;20.33;;;3.30;86.80;;;;;;5087996;28;20020;-74
2021/01/30 04:17:02;;;;;;;28.13;20.83;;;3.30;86.80;;;;;;5094434;28;20032;-74
2021/01/30 04:19:28;;;;;;;28.00;20.48;;;3.30;87.00;;;;;;5094834;28;20435;-74
2021/01/30 04:21:54;;;;;;;30.90;22.60;;;3.20;87.90;;;;;;5077882;28;20027;-74
2021/01/30 04:24:19;;;;;;;32.75;22.83;;;3.20;87.30;;;;;;5095260;28;20048;-75
2021/01/30 04:26:47;;;;;;;33.00;24.02;;;3.10;87.70;;;;;;5078266;28;20473;-74
2021/01/30 04:29:13;;;;;;;32.65;23.58;;;3.10;88.10;;;;;;5096168;28;20052;-74
2021/01/30 04:31:38;;;;;;;32.53;24.35;;;3.00;88.40;;;;;;5095961;28;20042;-74
2021/01/30 04:34:04;;;;;;;33.20;24.42;;;3.00;88.70;;;;;;5078150;28;20384;-75
2021/01/30 04:36:30;;;;;;;30.55;22.83;;;3.00;88.70;;;;;;5077891;28;20111;-75
2021/01/30 04:38:55;;;;;;;29.75;21.35;;;3.00;88.50;;;;;;5078183;28;20016;-78
2021/01/30 04:41:43;;;;;;;27.45;20.17;;;2.90;87.90;;;;;;5095649;28;20468;-78
2021/01/30 04:44:20;;;;;;;25.35;20.10;;;2.90;87.90;;;;;;5082821;28;20047;-78
2021/01/30 04:47:02;;;;;;;25.95;20.10;;;2.80;87.30;;;;;;5080011;28;20047;-78
2021/01/30 04:49:44;;;;;;;25.48;19.15;;;2.80;87.40;;;;;;5087984;28;20036;-77
2021/01/30 04:52:48;;;;;;;25.90;19.88;;;2.70;87.10;;;;;;5094777;28;20476;-78
2021/01/30 04:55:32;;;;;;;24.70;18.70;;;2.70;87.20;;;;;;5095694;28;20074;-79
2021/01/30 04:58:21;;;;;;;24.95;18.95;;;2.60;87.20;;;;;;5094571;28;20028;-78
2021/01/30 05:00:55;;;;;;;23.77;18.25;;;2.60;87.40;;;;;;5093063;28;20111;-78
2021/01/30 05:03:39;;;;;;;23.05;18.27;;;2.60;87.10;;;;;;5094419;28;20020;-79
2021/01/30 05:06:47;;;;;;;22.48;17.90;;;2.60;87.10;;;;;;5088786;28;20507;-78
2021/01/30 05:09:25;;;;;;;23.35;18.55;;;2.60;87.40;;;;;;5093790;28;20081;-78
2021/01/30 05:12:06;;;;;;;24.38;19.20;;;2.60;87.10;;;;;;5073958;28;20029;-78
2021/01/30 05:14:37;;;;;;;23.67;18.27;;;2.60;87.00;;;;;;5090218;28;20066;-78
2021/01/30 05:17:17;;;;;;;23.73;17.83;;;2.60;87.00;;;;;;5094461;28;20496;-78
2021/01/30 05:19:48;;;;;;;22.05;16.92;;;2.60;87.00;;;;;;5094055;28;20561;-78
2021/01/30 05:22:15;;;;;;;22.13;16.63;;;2.60;87.20;;;;;;5093067;28;20032;-78
2021/01/30 05:24:44;;;;;;;20.52;16.80;;;2.60;87.40;;;;;;5093724;28;20028;-78
2021/01/30 05:27:26;;;;;;;22.65;17.63;;;2.70;87.60;;;;;;5093621;28;20119;-78
2021/01/30 05:30:01;;;;;;;22.20;17.70;;;2.70;87.30;;;;;;5076972;28;20112;-78
2021/01/30 05:32:35;;;;;;;25.33;19.05;;;2.70;86.90;;;;;;5094592;28;20048;-74
2021/01/30 05:35:05;;;;;;;26.30;19.05;;;2.70;86.80;;;;;;5092853;28;20035;-74
2021/01/30 05:37:36;;;;;;;23.60;17.83;;;2.70;86.40;;;;;;5092440;28;20039;-74
2021/01/30 05:40:16;;;;;;;23.02;17.83;;;2.60;86.50;;;;;;5094402;28;20039;-74
2021/01/30 05:43:00;;;;;;;25.00;19.90;;;2.60;86.30;;;;;;5092277;28;20028;-75
2021/01/30 05:45:41;;;;;;;25.38;18.50;;;2.60;86.30;;;;;;5092631;28;20594;-75
2021/01/30 05:48:38;;;;;;;25.80;20.13;;;2.50;86.60;;;;;;5092693;28;20484;-74
2021/01/30 05:51:19;;;;;;;25.13;18.50;;;2.50;86.60;;;;;;5085068;28;20040;-75
2021/01/30 05:53:45;;;;;;;28.05;20.55;;;2.50;86.70;;;;;;5076337;28;20044;-75
2021/01/30 05:56:11;;;;;;;25.13;19.48;;;2.50;86.40;;;;;;5094337;28;20083;-74
2021/01/30 05:58:41;;;;;;;22.65;18.08;;;2.50;86.30;;;;;;5075748;28;20035;-74
2021/01/30 06:01:15;;;;;;;22.23;17.92;;;2.50;86.60;;;;;;5093003;28;20024;-74
2021/01/30 06:03:56;;;;;;;22.10;17.33;;;2.50;86.80;;;;;;5092308;28;20051;-74
2021/01/30 06:06:23;;;;;;;22.25;16.70;;;2.60;86.90;;;;;;5093850;28;20036;-75
2021/01/30 06:09:01;;;;;;;21.70;16.63;;;2.50;86.40;;;;;;5093728;28;20028;-74
2021/01/30 06:11:28;;;;;;;22.10;17.58;;;2.50;86.60;;;;;;5092763;28;20032;-75
2021/01/30 06:13:55;;;;;;;22.70;17.10;;;2.50;86.00;;;;;;5092336;28;20020;-75
2021/01/30 06:16:36;;;;;;;21.27;16.88;;;2.50;85.70;;;;;;5092958;28;20024;-74
2021/01/30 06:19:20;;;;;;;21.15;16.80;;;2.50;85.80;;;;;;5093666;28;20070;-75
2021/01/30 06:21:48;;;;;;;23.65;17.48;;;2.40;85.40;;;;;;5092437;28;20052;-74
2021/01/30 06:24:29;;;;;;;24.35;16.92;;;2.40;85.30;;;;;;5092359;28;20042;-75
2021/01/30 06:26:56;;;;;;;20.90;15.77;;;2.30;85.70;;;;;;5093449;28;20031;-74
2021/01/30 06:29:49;;;;;;;20.30;15.43;;;2.30;85.90;;;;;;5093652;28;20028;-74
2021/01/30 06:32:37;;;;;;;20.98;16.40;;;2.40;86.30;;;;;;5076141;28;20047;-75
2021/01/30 06:35:17;;;;;;;23.90;17.73;;;2.40;86.10;;;;;;5093302;28;20032;-74
2021/01/30 06:37:48;;;;;;;23.55;17.65;;;2.40;86.10;;;;;;5092350;28;20056;-75
2021/01/30 06:40:21;;;;;;;22.05;16.77;;;2.40;86.30;;;;;;5092036;28;20028;-75
2021/01/30 06:42:49;;;;;;;25.00;17.98;;;2.40;86.50;;;;;;5092124;28;20031;-74
2021/01/30 06:45:32;;;;;;;22.58;16.88;;;2.40;86.50;;;;;;5091908;28;20058;-75
2021/01/30 06:47:58;;;;;;;23.63;17.98;;;2.40;86.30;;;;;;5091960;28;20024;-74
2021/01/30 06:50:36;;;;;;;27.75;20.33;;;2.40;86.10;;;;;;5092098;28;20031;-75
2021/01/30 06:53:23;;;;;;;27.60;21.13;;;2.40;86.30;;;;;;5091776;28;20076;-74
2021/01/30 06:55:49;;;;;;;29.10;22.02;;;2.30;86.20;;;;;;5093321;28;20085;-74
2021/01/30 06:58:27;;;;;;;28.30;21.52;;;2.30;86.50;;;;;;5075261;28;20020;-74
2021/01/30 07:01:06;;;;;;;29.92;21.20;;;2.30;86.70;;;;;;5088344;28;20039;-75
2021/01/30 07:03:55;;;;;;;31.70;22.98;;;2.30;87.00;;;;;;5091503;28;20466;-74
2021/01/30 07:06:45;;;;;;;27.55;21.42;;;2.30;87.00;;;;;;5092930;28;20141;-74
2021/01/30 07:09:26;;;;;;;28.23;20.92;;;2.30;86.80;;;;;;5093114;28;20024;-74
2021/01/30 07:12:24;;;;;;;28.73;21.05;;;2.20;86.60;;;;;;5093298;28;20104;-74
2021/01/30 07:15:19;;;;;;;32.63;22.55;;;2.20;87.00;;;;;;5091873;28;20642;-74
2021/01/30 07:18:08;;;;;;;28.27;21.38;;;2.20;87.10;;;;;;5093128;28;20396;-74
2021/01/30 07:20:58;;;;;;;27.92;20.33;;;2.20;87.30;;;;;;5092146;28;20035;-74
2021/01/30 07:23:33;;;;;;;24.17;19.33;;;2.20;87.20;;;;;;5077913;28;20048;-74
2021/01/30 07:26:05;;;;;;;25.73;19.30;;;2.20;87.00;;;;;;5095875;28;20050;-74
2021/01/30 07:28:41;;;;;;;25.27;19.45;;;2.30;87.00;;;;;;5096036;28;20020;-74
2021/01/30 07:31:27;;;;;;;26.65;19.52;;;2.30;86.80;;;;;;5096904;28;20024;-74
2021/01/30 07:34:04;;;;;;;28.67;19.63;;;2.30;85.80;;;;;;5096036;28;20540;-75
2021/01/30 07:36:30;;;;;;;24.17;18.55;;;2.20;85.70;;;;;;5096111;28;20028;-74
2021/01/30 07:39:24;;;;;;;26.42;18.67;;;2.20;85.60;;;;;;5097023;28;20081;-74
2021/01/30 07:42:03;;;;;;;28.98;20.80;;;2.20;85.80;;;;;;5096282;28;20025;-74
2021/01/30 07:44:40;;;;;;;25.95;20.67;;;2.10;85.50;;;;;;5096449;28;20040;-74
2021/01/30 07:47:28;;;;;;;29.30;21.60;;;2.10;85.70;;;;;;5095404;28;20024;-74
2021/01/30 07:49:58;;;;;;;31.10;21.98;;;2.10;86.00;;;;;;5096252;28;20491;-75
2021/01/30 07:52:28;;;;;;;27.90;21.20;;;2.10;86.00;;;;;;5095400;28;20487;-74
2021/01/30 07:54:57;;;;;;;27.58;20.55;;;2.10;86.00;;;;;;5096784;28;20342;-74
2021/01/30 07:57:40;;;;;;;29.02;21.88;;;2.20;86.00;;;;;;5096759;28;20032;-74
2021/01/30 08:00:20;;;;;;;36.15;26.17;;;2.20;86.00;;;;;;5095281;28;20017;-74
2021/01/30 08:03:30;;;;;;;30.27;22.77;;;2.20;86.00;;;;;;5095655;28;20070;-74
2021/01/30 08:06:26;;;;;;;30.20;22.55;;;2.20;86.00;;;;;;5087645;28;20028;-75
2021/01/30 08:09:10;;;;;;;28.60;21.50;;;2.20;85.90;;;;;;5086088;28;20020;-74
2021/01/30 08:11:44;;;;;;;33.50;24.40;;;2.30;86.20;;;;;;5095756;28;20024;-74
2021/01/30 08:14:31;;;;;;;28.13;20.83;;;2.30;85.90;;;;;;5093653;28;20380;-74
2021/01/30 08:17:08;;;;;;;26.90;20.75;;;2.30;86.00;;;;;;5092475;28;20016;-74
2021/01/30 08:19:43;;;;;;;29.80;20.55;;;2.30;86.10;;;;;;5090464;28;20024;-74
2021/01/30 08:22:16;;;;;;;32.25;23.17;;;2.30;86.20;;;;;;5093946;28;20115;-74
2021/01/30 08:24:55;;;;;;;30.67;21.98;;;2.40;86.20;;;;;;5094942;28;20115;-74
2021/01/30 08:27:27;;;;;;;24.92;19.77;;;2.40;86.00;;;;;;5090507;28;20056;-74
2021/01/30 08:30:00;;;;;;;27.98;21.85;;;2.40;86.00;;;;;;5093119;28;20039;-74
2021/01/30 08:32:25;;;;;;;27.35;20.00;;;2.40;85.60;;;;;;5090578;28;20035;-74
2021/01/30 08:34:56;;;;;;;22.63;18.38;;;2.30;85.20;;;;;;5093442;28;20465;-74
2021/01/30 08:37:25;;;;;;;24.70;18.08;;;2.30;84.90;;;;;;5093669;28;20043;-74
2021/01/30 08:40:12;;;;;;;21.83;16.55;;;2.30;85.20;;;;;;5093830;28;20485;-74
2021/01/30 08:42:54;;;;;;;19.85;16.00;;;2.40;85.50;;;;;;5089354;28;20114;-74
2021/01/30 08:45:26;;;;;;;17.60;14.75;;;2.40;85.20;;;;;;5092991;28;20048;-74
2021/01/30 08:47:55;;;;;;;17.80;14.93;;;2.40;85.10;;;;;;5094383;28;20103;-74
2021/01/30 08:50:44;;;;;;;18.70;15.07;;;2.40;84.80;;;;;;5093790;28;20024;-74
2021/01/30 08:53:16;;;;;;;18.58;14.27;;;2.50;84.60;;;;;;5091651;28;20035;-74
2021/01/30 08:55:44;;;;;;;17.98;14.27;;;2.50;84.60;;;;;;5091922;28;20029;-74
2021/01/30 08:58:32;;;;;;;16.42;13.77;;;2.40;84.50;;;;;;5091929;28;20030;-74
2021/01/30 09:01:00;;;;;;;14.93;13.05;;;2.50;84.70;;;;;;5093179;28;20111;-74
2021/01/30 09:03:42;;;;;;;15.85;13.38;;;2.50;84.40;;;;;;5089991;28;20020;-74
2021/01/30 09:06:08;;;;;;;15.63;12.98;;;2.60;84.00;;;;;;5093645;28;20036;-74
2021/01/30 09:08:40;;;;;;;18.05;12.93;;;2.50;83.80;;;;;;5075739;28;20031;-75
2021/01/30 09:11:46;;;;;;;15.43;13.00;;;2.50;83.70;;;;;;5093448;28;20031;-75
2021/01/30 09:14:36;;;;;;;14.95;12.90;;;2.50;83.30;;;;;;5094899;28;20028;-74
2021/01/30 09:17:12;;;;;;;13.80;12.05;;;2.50;83.30;;;;;;5092907;28;20127;-74
2021/01/30 09:20:22;;;;;;;15.95;12.80;;;2.50;83.00;;;;;;5093788;28;20150;-74
2021/01/30 09:23:24;;;;;;;14.95;11.70;;;2.50;82.90;;;;;;5051453;28;20032;-74
2021/01/30 09:26:18;;;;;;;13.38;11.90;;;2.50;83.00;;;;;;5026049;28;20029;-76
2021/01/30 09:28:43;;;;;;;14.23;11.65;;;2.50;82.90;;;;;;5087585;28;20492;-76
2021/01/30 09:31:16;;;;;;;15.05;12.40;;;2.50;82.50;;;;;;5092462;28;20016;-76
2021/01/30 09:34:11;;;;;;;14.43;12.40;;;2.50;82.40;;;;;;5093228;28;20085;-75
2021/01/30 09:36:46;;;;;;;16.65;13.10;;;2.50;82.50;;;;;;5093174;28;20537;-75
2021/01/30 09:39:23;;;;;;;17.02;12.90;;;2.50;82.50;;;;;;5094630;28;20491;-75
2021/01/30 09:41:49;;;;;;;14.38;12.13;;;2.60;82.20;;;;;;5090224;28;20035;-75
2021/01/30 09:44:20;;;;;;;13.48;11.45;;;2.50;81.90;;;;;;5093762;28;20044;-75
2021/01/30 09:46:54;;;;;;;16.10;12.10;;;2.60;81.90;;;;;;5091643;28;20024;-75
2021/01/30 09:49:27;;;;;;;13.90;11.20;;;2.60;81.90;;;;;;5085651;28;20020;-75
2021/01/30 09:51:55;;;;;;;16.30;12.52;;;2.60;81.80;;;;;;5090954;28;20480;-75
2021/01/30 09:54:24;;;;;;;13.55;10.70;;;2.60;82.20;;;;;;5088067;28;20032;-74
2021/01/30 09:56:53;;;;;;;12.55;10.13;;;2.60;81.30;;;;;;5092410;28;20027;-75
2021/01/30 09:59:25;;;;;;;12.23;9.45;;;2.60;81.40;;;;;;5075762;28;20594;-74
2021/01/30 10:01:50;;;;;;;10.23;8.32;;;2.60;81.00;;;;;;5093083;28;20052;-74
2021/01/30 10:04:24;;;;;;;9.52;8.35;;;2.60;81.10;;;;;;5092129;28;20082;-75
2021/01/30 10:07:07;;;;;;;13.15;9.20;;;2.60;81.10;;;;;;5090622;28;20016;-75
2021/01/30 10:09:44;;;;;;;13.98;9.13;;;2.60;81.20;;;;;;5093742;28;20046;-75
2021/01/30 10:12:12;;;;;;;9.55;8.10;;;2.60;80.80;;;;;;5089433;28;21049;-75
2021/01/30 10:14:42;;;;;;;9.32;7.65;;;2.70;81.00;;;;;;5079308;28;20389;-75
2021/01/30 10:17:20;;;;;;;9.85;8.05;;;2.70;80.90;;;;;;5090487;28;20032;-75
2021/01/30 10:19:46;;;;;;;10.10;7.55;;;2.70;80.60;;;;;;5084386;28;20070;-75
2021/01/30 10:22:24;;;;;;;9.15;6.63;;;2.80;80.60;;;;;;5092631;28;20032;-75
2021/01/30 10:24:59;;;;;;;8.38;6.50;;;2.80;80.20;;;;;;5091315;28;20028;-75
2021/01/30 10:27:29;;;;;;;8.40;6.72;;;2.90;80.20;;;;;;5075792;28;20526;-75
2021/01/30 10:29:56;;;;;;;9.52;7.95;;;2.90;79.90;;;;;;5091399;28;20528;-75
2021/01/30 10:32:40;;;;;;;8.60;6.90;;;2.90;79.50;;;;;;5092448;28;20419;-74
2021/01/30 10:35:16;;;;;;;8.50;6.95;;;2.90;79.30;;;;;;5092963;28;20034;-75
2021/01/30 10:37:49;;;;;;;8.45;6.32;;;2.90;79.30;;;;;;5092409;28;20544;-75
2021/01/30 10:40:50;;;;;;;9.27;6.90;;;2.90;79.00;;;;;;5092810;28;20027;-75
2021/01/30 10:43:31;;;;;;;10.73;6.50;;;2.90;79.20;;;;;;5072711;28;20066;-75
2021/01/30 10:46:04;;;;;;;9.80;6.25;;;2.80;79.20;;;;;;5087156;28;20396;-75
2021/01/30 10:48:33;;;;;;;8.68;6.40;;;2.80;79.00;;;;;;5089119;28;20027;-75
2021/01/30 10:51:23;;;;;;;9.13;6.60;;;2.80;79.10;;;;;;5090326;28;20066;-76
2021/01/30 10:54:07;;;;;;;9.55;6.72;;;2.90;79.70;;;;;;5080512;28;20485;-75
2021/01/30 10:56:33;;;;;;;9.35;6.90;;;2.90;79.60;;;;;;5090760;28;20031;-75
2021/01/30 10:58:59;;;;;;;10.88;7.07;;;2.90;79.50;;;;;;5073978;28;20491;-75
2021/01/30 11:01:32;;;;;;;10.32;6.93;;;2.90;79.40;;;;;;5091639;28;20020;-75
2021/01/30 11:04:02;;;;;;;7.97;6.20;;;2.90;79.20;;;;;;5096959;28;20020;-75
2021/01/30 11:06:47;;;;;;;9.77;6.90;;;2.90;79.30;;;;;;5070817;28;20029;-75
2021/01/30 11:09:16;;;;;;;8.18;6.50;;;2.90;79.40;;;;;;5091740;28;20036;-75
2021/01/30 11:11:43;;;;;;;8.20;6.13;;;3.00;79.10;;;;;;5092676;28;20060;-75
2021/01/30 11:14:18;;;;;;;8.93;6.90;;;3.00;79.50;;;;;;5091501;28;20488;-75
2021/01/30 11:16:44;;;;;;;6.85;6.10;;;3.00;79.00;;;;;;5092223;28;20116;-75
2021/01/30 11:19:30;;;;;;;8.10;5.63;;;3.00;78.60;;;;;;5092095;28;20494;-75
2021/01/30 11:22:11;;;;;;;6.30;5.07;;;3.00;78.80;;;;;;5092132;28;20028;-75
2021/01/30 11:24:47;;;;;;;7.28;5.18;;;3.00;79.00;;;;;;5093004;28;20051;-75
2021/01/30 11:27:36;;;;;;;7.68;5.70;;;3.10;78.70;;;;;;5091984;28;20081;-75
2021/01/30 11:30:10;;;;;;;7.60;5.57;;;3.20;78.90;;;;;;5078086;28;20476;-75
2021/01/30 11:32:36;;;;;;;7.70;5.60;;;3.20;78.20;;;;;;5092911;28;20059;-75
2021/01/30 11:35:03;;;;;;;6.22;5.45;;;3.30;78.10;;;;;;5093142;28;20056;-75
2021/01/30 11:37:29;;;;;;;7.20;5.50;;;3.30;78.10;;;;;;5091896;28;20031;-75
2021/01/30 11:39:54;;;;;;;7.30;5.18;;;3.30;77.70;;;;;;5075291;28;20370;-75
2021/01/30 11:42:20;;;;;;;8.20;5.70;;;3.40;78.00;;;;;;5091507;28;20469;-75
2021/01/30 11:44:46;;;;;;;6.90;5.30;;;3.50;77.90;;;;;;5091399;28;20089;-75
2021/01/30 11:47:12;;;;;;;8.43;6.82;;;3.50;77.70;;;;;;5092740;28;20025;-75
2021/01/30 11:49:38;;;;;;;15.30;8.57;;;3.60;77.80;;;;;;5091428;28;20081;-75
2021/01/30 11:52:04;;;;;;;10.05;7.55;;;3.60;77.60;;;;;;5090327;28;20499;-74
2021/01/30 11:54:30;;;;;;;10.02;7.13;;;3.60;77.70;;;;;;5091183;28;20036;-74
2021/01/30 11:56:55;;;;;;;10.88;7.40;;;3.50;77.70;;;;;;5074447;28;20034;-74
2021/01/30 11:59:21;;;;;;;9.07;6.88;;;3.50;77.90;;;;;;5092238;28;20062;-74
2021/01/30 12:01:47;;;;;;;10.82;6.93;;;3.60;78.00;;;;;;5070923;28;20485;-75
2021/01/30 12:04:13;;;;;;;8.63;6.90;;;3.60;78.10;;;;;;5078243;28;20400;-75
2021/01/30 12:06:40;;;;;;;10.32;6.95;;;3.60;78.30;;;;;;5084293;28;20032;-74
2021/01/30 12:09:06;;;;;;;8.10;6.15;;;3.60;78.20;;;;;;5092807;28;20020;-74
2021/01/30 12:11:31;;;;;;;8.95;5.97;;;3.70;77.90;;;;;;5094236;28;20545;-74
2021/01/30 12:13:57;;;;;;;10.07;6.53;;;3.70;77.70;;;;;;5078267;28;20024;-74
2021/01/30 12:16:25;;;;;;;8.98;6.50;;;3.60;77.60;;;;;;5096145;28;20036;-74
2021/01/30 12:18:51;;;;;;;11.05;8.13;;;3.60;77.80;;;;;;5095429;28;20039;-74
2021/01/30 12:21:17;;;;;;;9.65;6.95;;;3.60;78.10;;;;;;5089805;28;20055;-74
2021/01/30 12:23:43;;;;;;;17.13;7.72;;;3.50;78.00;;;;;;5095713;28;20036;-75
2021/01/30 12:26:11;;;;;;;10.50;7.30;;;3.60;78.00;;;;;;5094997;28;20024;-74
2021/01/30 12:28:37;;;;;;;8.10;6.50;;;3.60;78.10;;;;;;5094864;28;20035;-74
2021/01/30 12:31:04;;;;;;;8.15;6.18;;;3.60;78.30;;;;;;5078164;28;20020;-75
2021/01/30 12:33:30;;;;;;;7.35;5.60;;;3.70;78.30;;;;;;5094830;28;20387;-75
2021/01/30 12:35:56;;;;;;;8.88;5.38;;;3.70;77.90;;;;;;5074286;28;20123;-76
2021/01/30 12:38:23;;;;;;;9.65;6.03;;;3.70;77.70;;;;;;5081459;28;20028;-75
2021/01/30 12:40:51;;;;;;;10.82;6.03;;;3.70;77.70;;;;;;5092136;28;20021;-75
2021/01/30 12:43:20;;;;;;;11.25;6.85;;;3.80;77.60;;;;;;5094777;28;20028;-75
2021/01/30 12:45:47;;;;;;;7.00;5.47;;;3.80;77.70;;;;;;5095953;28;20492;-75
2021/01/30 12:48:13;;;;;;;6.32;5.20;;;3.90;77.60;;;;;;5058849;28;20040;-75
2021/01/30 12:50:39;;;;;;;7.93;6.15;;;3.80;77.40;;;;;;5088728;28;20032;-75
2021/01/30 12:53:07;;;;;;;8.18;5.60;;;3.90;77.70;;;;;;5093498;28;20020;-75
2021/01/30 12:55:33;;;;;;;6.60;5.60;;;3.90;77.40;;;;;;5092740;28;20028;-75
2021/01/30 12:57:59;;;;;;;8.07;5.45;;;3.90;77.20;;;;;;5067527;28;20036;-74
2021/01/30 13:00:26;;;;;;;5.95;4.65;;;3.90;77.10;;;;;;5078853;28;20173;-75
2021/01/30 13:02:53;;;;;;;6.57;5.15;;;4.00;77.10;;;;;;5084995;28;20025;-75
2021/01/30 13:05:20;;;;;;;5.53;4.95;;;4.00;76.90;;;;;;5090099;28;20162;-75
2021/01/30 13:07:47;;;;;;;6.75;5.00;;;4.10;77.10;;;;;;5080414;28;20150;-75
2021/01/30 13:10:17;;;;;;;5.38;4.70;;;4.10;76.90;;;;;;5085789;28;20114;-75
2021/01/30 13:12:42;;;;;;;5.22;4.72;;;4.20;76.60;;;;;;5078401;28;20039;-75
2021/01/30 13:15:09;;;;;;;5.55;4.68;;;4.20;76.70;;;;;;5064048;28;20399;-78
2021/01/30 13:17:35;;;;;;;8.63;5.03;;;4.20;76.80;;;;;;5080555;28;20495;-78